Historyczne dane pomiarowe

Dodano dane terminowe – wersja testowa.

Dane z okresu 1951-2019

Wersja bazy: 1.34 [2019-03-16, lista zmian], aktualizacja planowana na 2019-04-15

Dane meteo z obszaru Polski uzyskane na podstawie danych udostępnionych przez Instytut Meteorologii i Gospodarki Wodnej – Państwowy Instytut Badawczy.

 

Wybierz Datę:    

       

TemperaturaWilgotnośćWiatrCiśnienieOpadyŚniegCzas trwania zjawisk
 Stacja t tx tn tng RH VA  wxwx mslp ppp RRR   cm mm wxwxwxwxwxwxwx
2012-10-10 4.1 11.7 -1.8--- 7.3----- 0.0------------
2012-10-09 6.7 14.2 0.3--- 7.0----- 0.0------------
2012-10-08 5.6 10.0 3.2--- 8.0----- 1.5------------
2012-10-07 9.7 21.7 4.1--- 8.0----- 16.4------------
2012-10-06 15.3 20.2 8.1--- 6.3----- 2.7------------
2012-10-05 9.7 18.7 3.2--- 6.3----- 0.0------------
2012-10-04 14.6 22.2 8.6--- 7.7----- 7.5------------
2012-10-03 10.7 21.7 3.7--- 5.0----- 0.0------------
2012-10-02 10.7 18.2 5.2--- 8.0----- 0.0------------
2012-10-01 10.3 17.2 3.2--- 7.7----- 0.5------------
2012-09-30 9.8 18.0 5.2--- 5.3----- 0.0------------
2012-09-29 12.7 20.0 7.1--- 6.3----- 4.8------------
2012-09-28 12.2 19.5 8.1--- 6.0----- 0.0------------
2012-09-27 14.9 22.0 10.2--- 7.7----- 0.0------------
2012-09-26 15.7 22.0 10.8--- 6.0----- 0.0------------
2012-09-25 14.3 21.5 10.0--- 5.3----- 0.0------------
2012-09-24 11.5 18.5 2.2--- 6.7----- 0.2------------
2012-09-23 6.5 17.0 0.3--- 6.3----- 0.0------------
2012-09-22 10.0 17.0 5.2--- 8.0----- 3.7------------
2012-09-21 7.0 14.7 0.3--- 6.3----- 0.0------------
2012-09-20 6.2 12.7 0.9--- 7.3----- 0.0------------
2012-09-19 11.1 16.7 6.6--- 8.0----- 12.2------------
2012-09-18 15.2 22.9 10.0--- 5.3----- 0.0------------
2012-09-17 14.2 23.3 7.7--- 5.7----- 0.0------------
2012-09-16 11.5 15.8 7.1--- 7.7----- 0.0------------
2012-09-15 10.1 12.7 6.6--- 7.3----- 0.0------------
2012-09-14 8.1 15.3 2.2--- 5.7----- 0.0------------
2012-09-13 7.4 9.6 5.1--- 8.0----- 4.4------------
2012-09-12 12.2 17.8 7.1--- 8.0----- 48.5------------
2012-09-11 18.5 24.8 15.0--- 5.0----- 5.0------------
2012-09-10 17.6 24.3 11.0--- 4.3----- 0.0------------
2012-09-09 14.6 21.9 8.1--- 6.3----- 0.0------------
2012-09-08 14.8 17.8 12.0--- 6.3----- 0.0------------
2012-09-07 12.7 16.8 8.1--- 6.7----- 0.1------------
2012-09-06 12.2 17.1 9.6--- 7.3----- 0.0------------
2012-09-05 13.5 20.4 8.1--- 6.7----- 2.5------------
2012-09-04 13.8 20.4 8.6--- 6.3----- 0.0------------
2012-09-03 13.3 16.8 8.3--- 8.0----- 0.0------------
2012-09-02 13.5 15.8 9.5--- 8.0----- 0.0------------
2012-09-01 12.2 14.5 9.1--- 8.0----- 2.6------------
2012-08-31 15.4 20.9 11.0--- 8.0----- 22.5------------
2012-08-30 18.7 25.3 11.5--- 5.0----- 0.0------------
2012-08-29 16.1 23.3 11.0--- 6.7----- 0.0------------
2012-08-28 13.6 21.3 3.7--- 4.0----- 0.0------------
2012-08-27 14.0 17.3 11.0--- 7.0----- 0.0------------
2012-08-26 15.4 19.9 12.6--- 8.0----- 0.5------------
2012-08-25 19.0 23.3 15.6--- 7.3----- 10.0------------
2012-08-24 20.1 27.1 11.5--- 6.7----- 0.8------------
2012-08-23 17.2 24.8 12.0--- 5.3----- 0.0------------
2012-08-22 20.8 27.2 16.0--- 6.3----- 1.0------------
2012-08-21 20.5 25.8 15.5--- 7.7----- 0.0------------
2012-08-20 24.3 31.7 18.5--- 1.7----- 0.0------------
2012-08-19 19.9 28.7 11.5--- 2.0----- 0.0------------
2012-08-18 15.5 23.8 8.6--- 5.7----- 0.0------------
2012-08-17 16.0 20.1 12.2--- 7.7----- 0.3------------
2012-08-16 15.0 22.8 6.6--- 5.3----- 0.3------------
2012-08-15 12.5 20.4 5.6--- 4.7----- 0.0------------
2012-08-14 11.3 17.8 4.7--- 6.7----- 0.0------------
2012-08-13 10.6 17.3 4.7--- 5.0----- 0.0------------
2012-08-12 12.0 16.3 8.6--- 7.0----- 0.0------------
246.7 ms

 

Źródłem pochodzenia danych jest Instytut Meteorologii i Gospodarki Wodnej – Państwowy Instytut Badawczy. Dane Instytutu Meteorologii i Gospodarki Wodnej – Państwowego Instytutu Badawczego zostały przetworzone.

Dane źródłowe można odnaleźć na stronie https://dane.imgw.pl